Time;durP1;ratioP1;P1;durP2;ratioP2;P2;SDS_P1;SDS_P2;PMS_P1;PMS_P2;Temp;Humidity;BMP_temperature;BMP_pressure;BME280_temperature;BME280_humidity;BME280_pressure;Samples;Min_cycle;Max_cycle;Signal;HPM_P1;HPM_P2
2023/03/13 00:01:01;;;;;;;;;;;11.00;84.70;;;;;;5091488;28;19913;-32
2023/03/13 00:03:27;;;;;;;;;;;10.90;84.80;;;;;;5091501;28;20280;-30
2023/03/13 00:05:58;;;;;;;;;;;10.90;84.90;;;;;;5091692;28;19908;-35
2023/03/13 00:08:24;;;;;;;;;;;10.90;85.00;;;;;;5091554;28;19991;-33
2023/03/13 00:10:49;;;;;;;;;;;10.90;85.00;;;;;;5091629;28;20057;-31
2023/03/13 00:13:16;;;;;;;;;;;10.90;85.00;;;;;;5091428;28;19963;-32
2023/03/13 00:15:41;;;;;;;;;;;10.90;85.10;;;;;;5091638;28;19908;-31
2023/03/13 00:18:07;;;;;;;;;;;10.90;85.10;;;;;;5090558;28;20271;-34
2023/03/13 00:20:32;;;;;;;;;;;10.90;85.10;;;;;;5091498;28;19973;-32
2023/03/13 00:22:58;;;;;;;;;;;10.80;85.10;;;;;;5091462;28;19915;-32
2023/03/13 00:25:23;;;;;;;;;;;10.80;85.20;;;;;;5091524;28;19952;-37
2023/03/13 00:27:49;;;;;;;;;;;10.90;85.30;;;;;;5091327;28;20295;-31
2023/03/13 00:30:14;;;;;;;;;;;10.80;85.30;;;;;;5091370;28;19924;-31
2023/03/13 00:32:41;;;;;;;;;;;10.90;85.40;;;;;;5091204;28;19955;-33
2023/03/13 00:35:06;;;;;;;;;;;10.80;85.40;;;;;;5091176;28;19919;-31
2023/03/13 00:37:32;;;;;;;;;;;10.80;85.40;;;;;;5091257;28;20014;-33
2023/03/13 00:39:57;;;;;;;;;;;10.80;85.50;;;;;;5091170;28;19908;-31
2023/03/13 00:42:23;;;;;;;;;;;10.80;85.60;;;;;;5091188;28;19908;-31
2023/03/13 00:44:48;;;;;;;;;;;10.80;85.60;;;;;;5091221;28;19968;-30
2023/03/13 00:47:14;;;;;;;;;;;10.80;85.60;;;;;;5091207;28;19915;-35
2023/03/13 00:49:39;;;;;;;;;;;10.80;85.70;;;;;;5091093;28;19977;-37
2023/03/13 00:52:05;;;;;;;;;;;10.80;85.70;;;;;;5091280;28;20365;-34
2023/03/13 00:54:30;;;;;;;;;;;10.80;85.70;;;;;;5091059;28;19912;-31
2023/03/13 00:56:56;;;;;;;;;;;10.80;85.80;;;;;;5091398;28;19912;-34
2023/03/13 00:59:21;;;;;;;;;;;10.80;85.90;;;;;;5090954;28;19908;-31
2023/03/13 01:01:47;;;;;;;;;;;10.80;86.10;;;;;;5091178;28;19909;-31
2023/03/13 01:04:13;;;;;;;;;;;10.70;86.10;;;;;;5090983;28;19908;-32
2023/03/13 01:06:41;;;;;;;;;;;10.70;86.20;;;;;;5091221;28;19908;-34
2023/03/13 01:09:08;;;;;;;;;;;10.60;86.20;;;;;;5090957;28;19958;-34
2023/03/13 01:11:34;;;;;;;;;;;10.60;86.30;;;;;;5091087;28;19915;-35
2023/03/13 01:14:04;;;;;;;;;;;10.60;86.40;;;;;;5090938;28;19935;-35
2023/03/13 01:16:31;;;;;;;;;;;10.70;87.20;;;;;;5090956;28;20367;-31
2023/03/13 01:18:59;;;;;;;;;;;10.70;86.50;;;;;;5091329;28;19916;-32
2023/03/13 01:21:24;;;;;;;;;;;10.60;86.70;;;;;;5090868;28;19970;-30
2023/03/13 01:23:51;;;;;;;;;;;10.60;86.70;;;;;;5091799;28;19912;-34
2023/03/13 01:26:17;;;;;;;;;;;10.70;86.80;;;;;;5094726;28;20011;-33
2023/03/13 01:28:42;;;;;;;;;;;10.70;86.80;;;;;;5094309;28;19959;-37
2023/03/13 01:31:12;;;;;;;;;;;10.70;86.90;;;;;;5094342;28;20256;-31
2023/03/13 01:33:38;;;;;;;;;;;10.70;87.10;;;;;;5094282;28;19946;-32
2023/03/13 01:36:03;;;;;;;;;;;10.70;87.10;;;;;;5094280;28;20471;-32
2023/03/13 01:38:29;;;;;;;;;;;10.70;87.10;;;;;;5092774;28;20288;-33
2023/03/13 01:40:54;;;;;;;;;;;10.70;87.20;;;;;;5094171;28;19966;-33
2023/03/13 01:43:25;;;;;;;;;;;10.70;87.20;;;;;;5094421;28;19908;-32
2023/03/13 01:45:56;;;;;;;;;;;10.70;87.40;;;;;;5094451;28;19908;-31
2023/03/13 01:48:25;;;;;;;;;;;10.70;87.50;;;;;;5094025;28;19908;-30
2023/03/13 01:50:51;;;;;;;;;;;10.70;87.60;;;;;;5094048;28;19908;-30
2023/03/13 01:53:17;;;;;;;;;;;10.70;87.70;;;;;;5093842;28;20176;-36
2023/03/13 01:55:43;;;;;;;;;;;10.70;87.60;;;;;;5093791;28;19999;-31
2023/03/13 01:58:08;;;;;;;;;;;10.70;87.70;;;;;;5094171;28;19908;-34
2023/03/13 02:00:35;;;;;;;;;;;10.70;87.70;;;;;;5093858;28;19916;-32
2023/03/13 02:03:07;;;;;;;;;;;10.70;87.90;;;;;;5093448;28;19955;-34
2023/03/13 02:05:33;;;;;;;;;;;10.70;88.00;;;;;;5093300;28;19916;-32
2023/03/13 02:08:08;;;;;;;;;;;10.70;88.00;;;;;;5093289;28;19915;-33
2023/03/13 02:10:37;;;;;;;;;;;10.70;88.10;;;;;;5093491;28;20169;-31
2023/03/13 02:13:02;;;;;;;;;;;10.80;88.20;;;;;;5093227;28;20373;-30
2023/03/13 02:15:29;;;;;;;;;;;10.70;88.30;;;;;;5093025;28;19994;-33
2023/03/13 02:17:54;;;;;;;;;;;10.80;89.10;;;;;;5091645;28;20432;-35
2023/03/13 02:20:23;;;;;;;;;;;10.80;88.40;;;;;;5093130;28;19912;-30
2023/03/13 02:23:15;;;;;;;;;;;10.80;88.50;;;;;;5091613;28;19966;-36
2023/03/13 02:25:42;;;;;;;;;;;10.80;88.60;;;;;;5076693;28;20377;-31
2023/03/13 02:28:21;;;;;;;;;;;10.80;88.60;;;;;;5092989;28;20368;-32
2023/03/13 02:30:48;;;;;;;;;;;10.80;88.60;;;;;;5092800;28;20023;-32
2023/03/13 02:33:15;;;;;;;;;;;10.90;88.70;;;;;;5091204;28;20007;-32
2023/03/13 02:35:42;;;;;;;;;;;10.80;88.80;;;;;;5091644;28;19915;-37
2023/03/13 02:38:09;;;;;;;;;;;10.90;88.90;;;;;;5093084;28;20322;-32
2023/03/13 02:40:36;;;;;;;;;;;10.90;88.80;;;;;;5092883;28;19942;-32
2023/03/13 02:43:07;;;;;;;;;;;10.90;88.90;;;;;;5092610;28;19952;-32
2023/03/13 02:45:32;;;;;;;;;;;11.00;89.00;;;;;;5093173;28;20358;-35
2023/03/13 02:47:58;;;;;;;;;;;11.00;89.00;;;;;;5092616;28;20011;-35
2023/03/13 02:50:23;;;;;;;;;;;11.00;89.00;;;;;;5092465;28;19908;-33
2023/03/13 02:52:52;;;;;;;;;;;11.10;89.00;;;;;;5092303;28;19912;-33
2023/03/13 02:55:21;;;;;;;;;;;11.10;89.10;;;;;;5090954;28;19915;-31
2023/03/13 02:57:47;;;;;;;;;;;11.10;89.20;;;;;;5092512;28;19927;-35
2023/03/13 03:00:15;;;;;;;;;;;11.10;89.20;;;;;;5092262;28;19908;-33
2023/03/13 03:02:41;;;;;;;;;;;11.20;89.40;;;;;;5092281;28;19919;-31
2023/03/13 03:05:06;;;;;;;;;;;11.20;89.60;;;;;;5090759;28;19908;-34
2023/03/13 03:07:32;;;;;;;;;;;11.20;90.00;;;;;;5092184;28;19908;-33
2023/03/13 03:09:57;;;;;;;;;;;11.20;89.80;;;;;;5092354;28;20445;-32
2023/03/13 03:12:23;;;;;;;;;;;11.20;90.00;;;;;;5092067;28;19915;-31
2023/03/13 03:14:48;;;;;;;;;;;11.20;90.00;;;;;;5092052;28;20398;-35
2023/03/13 03:17:14;;;;;;;;;;;11.30;90.20;;;;;;5092132;28;20253;-32
2023/03/13 03:19:39;;;;;;;;;;;11.30;90.30;;;;;;5092260;28;19908;-36
2023/03/13 03:22:05;;;;;;;;;;;11.30;90.50;;;;;;5092449;28;19908;-40
2023/03/13 03:24:31;;;;;;;;;;;11.30;90.40;;;;;;5092285;28;19961;-30
2023/03/13 03:26:56;;;;;;;;;;;11.30;90.50;;;;;;5092242;28;19915;-36
2023/03/13 03:29:22;;;;;;;;;;;11.40;90.70;;;;;;5091931;28;19927;-31
2023/03/13 03:31:47;;;;;;;;;;;11.40;90.70;;;;;;5090396;28;20040;-32
2023/03/13 03:34:12;;;;;;;;;;;11.40;90.80;;;;;;5091791;28;20406;-31
2023/03/13 03:36:38;;;;;;;;;;;11.40;90.80;;;;;;5091870;28;19908;-32
2023/03/13 03:39:04;;;;;;;;;;;11.50;90.70;;;;;;5091741;28;19948;-32
2023/03/13 03:41:29;;;;;;;;;;;11.50;91.00;;;;;;5091677;28;19950;-31
2023/03/13 03:43:55;;;;;;;;;;;11.50;91.00;;;;;;5091636;28;19912;-33
2023/03/13 03:46:20;;;;;;;;;;;11.50;91.00;;;;;;5091240;28;19908;-35
2023/03/13 03:48:46;;;;;;;;;;;11.60;91.20;;;;;;5091626;28;19957;-33
2023/03/13 03:51:12;;;;;;;;;;;11.60;91.20;;;;;;5090364;28;20363;-32
2023/03/13 03:53:37;;;;;;;;;;;11.60;91.20;;;;;;5091521;28;19923;-32
2023/03/13 03:56:03;;;;;;;;;;;11.60;91.20;;;;;;5091703;28;19911;-32
2023/03/13 03:58:28;;;;;;;;;;;11.60;91.20;;;;;;5091515;28;20007;-37
2023/03/13 04:00:55;;;;;;;;;;;11.70;91.30;;;;;;5091795;28;20367;-36
2023/03/13 04:03:21;;;;;;;;;;;11.70;91.20;;;;;;5091782;28;19970;-31
2023/03/13 04:05:46;;;;;;;;;;;11.70;91.40;;;;;;5091554;28;19912;-29
2023/03/13 04:08:12;;;;;;;;;;;11.70;91.50;;;;;;5090392;28;19908;-34
2023/03/13 04:10:37;;;;;;;;;;;11.70;91.70;;;;;;5091641;28;19912;-32
2023/03/13 04:13:03;;;;;;;;;;;11.70;91.40;;;;;;5091812;28;19908;-32
2023/03/13 04:15:28;;;;;;;;;;;11.70;91.40;;;;;;5091741;28;19915;-31
2023/03/13 04:17:54;;;;;;;;;;;11.80;91.50;;;;;;5091751;28;19908;-31
2023/03/13 04:20:19;;;;;;;;;;;11.80;91.50;;;;;;5092023;28;19908;-33
2023/03/13 04:22:45;;;;;;;;;;;11.80;91.60;;;;;;5091887;28;19969;-34
2023/03/13 04:25:10;;;;;;;;;;;11.80;91.60;;;;;;5091656;28;19991;-31
2023/03/13 04:27:36;;;;;;;;;;;11.80;91.60;;;;;;5091729;28;19951;-33
2023/03/13 04:30:02;;;;;;;;;;;11.80;91.70;;;;;;5091548;28;20063;-30
2023/03/13 04:32:27;;;;;;;;;;;11.80;91.70;;;;;;5091652;28;20003;-33
2023/03/13 04:34:53;;;;;;;;;;;11.80;91.80;;;;;;5091576;28;19916;-32
2023/03/13 04:37:18;;;;;;;;;;;11.90;92.00;;;;;;5091606;28;19912;-31
2023/03/13 04:39:44;;;;;;;;;;;11.90;91.90;;;;;;5091613;28;19904;-30
2023/03/13 04:42:10;;;;;;;;;;;11.90;91.90;;;;;;5091304;28;19954;-30
2023/03/13 04:44:36;;;;;;;;;;;12.00;91.90;;;;;;5091181;28;20053;-34
2023/03/13 04:47:02;;;;;;;;;;;12.00;92.10;;;;;;5091597;28;20002;-34
2023/03/13 04:49:27;;;;;;;;;;;12.00;92.00;;;;;;5091517;28;19956;-33
2023/03/13 04:51:53;;;;;;;;;;;12.00;91.90;;;;;;5091523;28;19915;-30
2023/03/13 04:54:18;;;;;;;;;;;12.10;92.00;;;;;;5091375;28;19912;-31
2023/03/13 04:56:44;;;;;;;;;;;12.10;91.90;;;;;;5091378;28;20368;-29
2023/03/13 04:59:13;;;;;;;;;;;12.10;91.90;;;;;;5092799;28;19985;-31
2023/03/13 05:01:38;;;;;;;;;;;12.10;91.90;;;;;;5095309;28;19980;-31
2023/03/13 05:04:04;;;;;;;;;;;12.10;92.00;;;;;;5095504;28;19908;-31
2023/03/13 05:06:29;;;;;;;;;;;12.10;91.90;;;;;;5093931;28;19922;-31
2023/03/13 05:08:55;;;;;;;;;;;12.20;91.90;;;;;;5095152;28;19914;-36
2023/03/13 05:11:21;;;;;;;;;;;12.20;92.00;;;;;;5095454;28;20013;-30
2023/03/13 05:13:46;;;;;;;;;;;12.20;92.10;;;;;;5095074;28;19912;-32
2023/03/13 05:16:12;;;;;;;;;;;12.20;92.00;;;;;;5094937;28;19915;-32
2023/03/13 05:18:38;;;;;;;;;;;12.20;92.00;;;;;;5095066;28;19912;-34
2023/03/13 05:21:04;;;;;;;;;;;12.30;92.00;;;;;;5094949;28;19908;-35
2023/03/13 05:23:29;;;;;;;;;;;12.30;92.00;;;;;;5094835;28;19939;-30
2023/03/13 05:25:55;;;;;;;;;;;12.30;92.00;;;;;;5095044;28;20005;-31
2023/03/13 05:28:20;;;;;;;;;;;12.30;92.00;;;;;;5094619;28;19962;-34
2023/03/13 05:30:46;;;;;;;;;;;12.30;92.10;;;;;;5094808;28;19918;-30
2023/03/13 05:33:11;;;;;;;;;;;12.40;92.10;;;;;;5094627;28;19915;-30
2023/03/13 05:35:37;;;;;;;;;;;12.40;92.00;;;;;;5094764;28;20353;-31
2023/03/13 05:38:04;;;;;;;;;;;12.40;92.00;;;;;;5094386;28;20281;-33
2023/03/13 05:40:29;;;;;;;;;;;12.40;92.00;;;;;;5094659;28;19962;-32
2023/03/13 05:42:55;;;;;;;;;;;12.40;91.90;;;;;;5094608;28;20007;-32
2023/03/13 05:45:21;;;;;;;;;;;12.40;92.00;;;;;;5094463;28;19931;-33
2023/03/13 05:47:46;;;;;;;;;;;12.50;92.20;;;;;;5094875;28;19908;-31
2023/03/13 05:50:12;;;;;;;;;;;12.50;91.90;;;;;;5094435;28;19915;-31
2023/03/13 05:52:37;;;;;;;;;;;12.50;91.90;;;;;;5094531;28;19944;-31
2023/03/13 05:55:03;;;;;;;;;;;12.50;91.90;;;;;;5094108;28;19912;-33
2023/03/13 05:57:28;;;;;;;;;;;12.50;91.90;;;;;;5094246;28;19908;-31
2023/03/13 05:59:54;;;;;;;;;;;12.50;91.90;;;;;;5094307;28;20014;-41
2023/03/13 06:02:19;;;;;;;;;;;12.60;91.90;;;;;;5094105;28;19912;-36
2023/03/13 06:04:45;;;;;;;;;;;12.60;91.90;;;;;;5094198;28;19915;-32
2023/03/13 06:07:11;;;;;;;;;;;12.60;91.80;;;;;;5094027;28;19908;-34
2023/03/13 06:09:36;;;;;;;;;;;12.60;91.80;;;;;;5093823;28;19932;-35
2023/03/13 06:12:01;;;;;;;;;;;12.60;91.90;;;;;;5094115;28;19969;-34
2023/03/13 06:14:27;;;;;;;;;;;12.60;91.80;;;;;;5093861;28;19916;-36
2023/03/13 06:16:53;;;;;;;;;;;12.70;91.80;;;;;;5094009;28;20372;-29
2023/03/13 06:19:19;;;;;;;;;;;12.60;91.80;;;;;;5093980;28;19912;-31
2023/03/13 06:21:44;;;;;;;;;;;12.60;91.70;;;;;;5093896;28;20076;-35
2023/03/13 06:24:10;;;;;;;;;;;12.70;91.70;;;;;;5093784;28;20348;-33
2023/03/13 06:26:36;;;;;;;;;;;12.70;91.70;;;;;;5092294;28;20382;-34
2023/03/13 06:29:01;;;;;;;;;;;12.70;91.70;;;;;;5093542;28;20014;-32
2023/03/13 06:31:27;;;;;;;;;;;12.70;91.60;;;;;;5093634;28;20314;-36
2023/03/13 06:33:55;;;;;;;;;;;12.80;91.60;;;;;;5093620;28;19965;-31
2023/03/13 06:36:22;;;;;;;;;;;12.80;91.50;;;;;;5093425;28;19919;-32
2023/03/13 06:38:47;;;;;;;;;;;12.80;91.50;;;;;;5093648;28;19916;-36
2023/03/13 06:41:13;;;;;;;;;;;12.80;91.40;;;;;;5093422;28;20050;-30
2023/03/13 06:43:41;;;;;;;;;;;12.80;91.40;;;;;;5093378;28;19920;-37
2023/03/13 06:46:07;;;;;;;;;;;12.80;91.40;;;;;;5093315;28;19912;-32
2023/03/13 06:48:33;;;;;;;;;;;12.80;91.30;;;;;;5093222;28;19919;-35
2023/03/13 06:50:58;;;;;;;;;;;12.80;91.30;;;;;;5093260;28;20287;-37
2023/03/13 06:53:24;;;;;;;;;;;12.90;91.20;;;;;;5093053;28;20009;-30
2023/03/13 06:55:49;;;;;;;;;;;12.90;91.20;;;;;;5093123;28;20344;-31
2023/03/13 06:58:15;;;;;;;;;;;12.90;91.10;;;;;;5093114;28;19912;-32
2023/03/13 07:00:43;;;;;;;;;;;12.90;91.10;;;;;;5093381;28;20123;-31
2023/03/13 07:03:09;;;;;;;;;;;13.00;91.00;;;;;;5093105;28;19912;-35
2023/03/13 07:05:34;;;;;;;;;;;13.00;91.00;;;;;;5092960;28;20344;-32
2023/03/13 07:08:00;;;;;;;;;;;13.00;90.90;;;;;;5092896;28;19912;-31
2023/03/13 07:10:25;;;;;;;;;;;13.00;90.90;;;;;;5092754;28;19912;-31
2023/03/13 07:12:51;;;;;;;;;;;13.00;90.80;;;;;;5092839;28;20302;-30
2023/03/13 07:15:16;;;;;;;;;;;13.00;90.70;;;;;;5092787;28;19916;-33
2023/03/13 07:17:42;;;;;;;;;;;13.10;90.60;;;;;;5091256;28;20333;-33
2023/03/13 07:20:09;;;;;;;;;;;13.10;90.60;;;;;;5092726;28;20375;-33
2023/03/13 07:22:35;;;;;;;;;;;13.10;90.50;;;;;;5091960;28;19920;-34
2023/03/13 07:25:01;;;;;;;;;;;13.10;90.50;;;;;;5091941;28;20394;-33
2023/03/13 07:27:26;;;;;;;;;;;13.10;90.40;;;;;;5091970;28;19997;-31
2023/03/13 07:29:52;;;;;;;;;;;13.20;90.40;;;;;;5091832;28;20016;-33
2023/03/13 07:32:17;;;;;;;;;;;13.20;90.40;;;;;;5092210;28;20327;-36
2023/03/13 07:34:43;;;;;;;;;;;13.20;90.20;;;;;;5092332;28;20417;-35
2023/03/13 07:37:12;;;;;;;;;;;13.20;90.20;;;;;;5092434;28;19957;-31
2023/03/13 07:39:37;;;;;;;;;;;13.20;90.10;;;;;;5092472;28;20298;-31
2023/03/13 07:42:03;;;;;;;;;;;13.30;90.30;;;;;;5092436;28;19919;-32
2023/03/13 07:44:28;;;;;;;;;;;13.30;89.90;;;;;;5092247;28;19912;-33
2023/03/13 07:46:54;;;;;;;;;;;13.30;89.90;;;;;;5092231;28;20295;-32
2023/03/13 07:49:20;;;;;;;;;;;13.40;90.00;;;;;;5092196;28;19924;-38
2023/03/13 07:51:47;;;;;;;;;;;13.40;89.80;;;;;;5092263;28;19912;-31
2023/03/13 07:54:13;;;;;;;;;;;13.40;89.70;;;;;;5091949;28;20268;-36
2023/03/13 07:56:38;;;;;;;;;;;13.50;89.70;;;;;;5092180;28;19913;-34
2023/03/13 07:59:04;;;;;;;;;;;13.50;89.60;;;;;;5092031;28;20362;-31
2023/03/13 08:01:29;;;;;;;;;;;13.50;89.50;;;;;;5091926;28;19937;-36
2023/03/13 08:03:55;;;;;;;;;;;13.50;89.50;;;;;;5091938;28;19989;-30
2023/03/13 08:06:22;;;;;;;;;;;13.50;89.40;;;;;;5091864;28;20350;-34
2023/03/13 08:08:48;;;;;;;;;;;13.40;89.40;;;;;;5091728;28;19918;-31
2023/03/13 08:11:17;;;;;;;;;;;13.40;90.00;;;;;;5091819;28;19912;-33
2023/03/13 08:13:43;;;;;;;;;;;13.40;89.50;;;;;;5092021;28;20375;-32
2023/03/13 08:16:10;;;;;;;;;;;13.40;89.60;;;;;;5091716;28;19998;-32
2023/03/13 08:18:36;;;;;;;;;;;13.40;89.60;;;;;;5092040;28;19920;-41
2023/03/13 08:21:06;;;;;;;;;;;13.30;89.80;;;;;;5090280;28;19912;-33
2023/03/13 08:23:32;;;;;;;;;;;13.30;89.90;;;;;;5091532;28;19955;-35
2023/03/13 08:26:03;;;;;;;;;;;13.40;90.00;;;;;;5091823;28;19912;-33
2023/03/13 08:28:29;;;;;;;;;;;13.40;90.00;;;;;;5091636;28;20498;-36
2023/03/13 08:30:54;;;;;;;;;;;13.40;90.00;;;;;;5091691;28;19916;-35
2023/03/13 08:33:20;;;;;;;;;;;13.50;90.30;;;;;;5093282;28;19912;-37
2023/03/13 08:35:45;;;;;;;;;;;13.50;89.90;;;;;;5095864;28;19912;-34
2023/03/13 08:38:11;;;;;;;;;;;13.60;89.80;;;;;;5095660;28;19941;-36
2023/03/13 08:40:36;;;;;;;;;;;13.70;89.70;;;;;;5095624;28;19919;-34
2023/03/13 08:43:01;;;;;;;;;;;13.70;89.50;;;;;;5095452;28;19934;-34
2023/03/13 08:45:27;;;;;;;;;;;13.80;89.40;;;;;;5095520;28;20015;-32
2023/03/13 08:47:53;;;;;;;;;;;13.70;89.30;;;;;;5095384;28;19912;-33
2023/03/13 08:50:18;;;;;;;;;;;13.70;89.90;;;;;;5095369;28;19912;-35
2023/03/13 08:52:44;;;;;;;;;;;13.70;89.40;;;;;;5095640;28;19912;-32
2023/03/13 08:55:10;;;;;;;;;;;13.70;89.40;;;;;;5095213;28;20295;-32
2023/03/13 08:57:35;;;;;;;;;;;13.70;89.60;;;;;;5095225;28;19912;-36
2023/03/13 09:00:00;;;;;;;;;;;13.70;89.70;;;;;;5095302;28;19916;-34
2023/03/13 09:02:26;;;;;;;;;;;13.70;89.50;;;;;;5095180;28;19965;-35
2023/03/13 09:04:51;;;;;;;;;;;13.70;89.40;;;;;;5095367;28;19912;-35
2023/03/13 09:07:17;;;;;;;;;;;13.80;89.10;;;;;;5095159;28;20382;-31
2023/03/13 09:09:43;;;;;;;;;;;13.90;88.70;;;;;;5094983;28;19919;-36
2023/03/13 09:12:09;;;;;;;;;;;14.00;88.20;;;;;;5095044;28;20394;-36
2023/03/13 09:14:34;;;;;;;;;;;14.10;88.20;;;;;;5094934;28;20014;-34
2023/03/13 09:17:00;;;;;;;;;;;14.20;87.60;;;;;;5094969;28;19916;-38
2023/03/13 09:19:25;;;;;;;;;;;14.20;85.70;;;;;;5093465;28;19912;-30
2023/03/13 09:21:51;;;;;;;;;;;14.30;86.20;;;;;;5094890;28;20330;-32
2023/03/13 09:24:16;;;;;;;;;;;14.30;85.60;;;;;;5095019;28;19962;-31
2023/03/13 09:26:42;;;;;;;;;;;14.40;85.70;;;;;;5093537;28;20361;-34
2023/03/13 09:29:08;;;;;;;;;;;14.40;85.30;;;;;;5094800;28;20342;-33
2023/03/13 09:31:34;;;;;;;;;;;14.40;85.60;;;;;;5094705;28;19920;-31
2023/03/13 09:33:59;;;;;;;;;;;14.40;85.80;;;;;;5094798;28;19919;-35
2023/03/13 09:36:26;;;;;;;;;;;14.40;85.00;;;;;;5094602;28;19912;-40
2023/03/13 09:38:55;;;;;;;;;;;14.50;84.70;;;;;;5094698;28;19941;-37
2023/03/13 09:41:21;;;;;;;;;;;14.50;84.50;;;;;;5094559;28;20007;-30
2023/03/13 09:43:55;;;;;;;;;;;14.60;84.00;;;;;;5094474;28;19912;-34
2023/03/13 09:46:36;;;;;;;;;;;14.60;82.70;;;;;;5093849;28;19935;-34
2023/03/13 09:49:04;;;;;;;;;;;14.60;83.00;;;;;;5094420;28;20333;-32
2023/03/13 09:51:35;;;;;;;;;;;14.60;83.30;;;;;;5094435;28;20296;-31
2023/03/13 09:54:06;;;;;;;;;;;14.70;82.80;;;;;;5094112;28;19954;-35
2023/03/13 09:56:46;;;;;;;;;;;14.80;83.20;;;;;;5094146;28;20377;-31
2023/03/13 09:59:26;;;;;;;;;;;14.80;83.50;;;;;;5094202;28;19950;-32
2023/03/13 10:01:53;;;;;;;;;;;14.80;83.30;;;;;;5094102;28;19966;-35
2023/03/13 10:04:18;;;;;;;;;;;14.80;83.20;;;;;;5094110;28;19912;-32
2023/03/13 10:06:45;;;;;;;;;;;14.80;83.20;;;;;;5094123;28;19935;-34
2023/03/13 10:09:36;;;;;;;;;;;14.90;83.20;;;;;;5093961;28;19916;-36
2023/03/13 10:12:17;;;;;;;;;;;15.00;82.80;;;;;;5091829;28;19912;-34
2023/03/13 10:14:50;;;;;;;;;;;15.00;82.40;;;;;;5093755;28;19916;-36
2023/03/13 10:17:19;;;;;;;;;;;15.00;81.90;;;;;;5092609;28;20086;-33
2023/03/13 10:19:47;;;;;;;;;;;15.00;82.20;;;;;;5093991;28;19912;-35
2023/03/13 10:22:18;;;;;;;;;;;15.00;82.00;;;;;;5093677;28;19912;-34
2023/03/13 10:24:53;;;;;;;;;;;15.00;81.90;;;;;;5093990;28;19923;-30
2023/03/13 10:27:19;;;;;;;;;;;15.10;81.70;;;;;;5093723;28;20010;-34
2023/03/13 10:29:44;;;;;;;;;;;15.20;81.50;;;;;;5092090;28;19927;-31
2023/03/13 10:32:12;;;;;;;;;;;15.20;80.90;;;;;;5093551;28;20290;-32
2023/03/13 10:34:44;;;;;;;;;;;15.30;81.80;;;;;;5093652;28;19999;-30
2023/03/13 10:37:13;;;;;;;;;;;15.30;80.70;;;;;;5093417;28;19916;-34
2023/03/13 10:39:39;;;;;;;;;;;15.30;79.70;;;;;;5093352;28;19912;-33
2023/03/13 10:42:18;;;;;;;;;;;15.30;79.50;;;;;;5093254;28;19919;-31
2023/03/13 10:44:44;;;;;;;;;;;15.40;79.90;;;;;;5093308;28;19912;-33
2023/03/13 10:47:11;;;;;;;;;;;15.40;78.90;;;;;;5093309;28;19916;-33
2023/03/13 10:49:45;;;;;;;;;;;15.50;79.00;;;;;;5093169;28;19912;-35
2023/03/13 10:52:26;;;;;;;;;;;15.60;78.70;;;;;;5093415;28;19912;-35
2023/03/13 10:54:55;;;;;;;;;;;15.60;78.40;;;;;;5092948;28;19965;-34
2023/03/13 10:57:20;;;;;;;;;;;15.60;78.00;;;;;;5092031;28;19959;-35
2023/03/13 10:59:49;;;;;;;;;;;15.70;78.30;;;;;;5093025;28;19919;-32
2023/03/13 11:02:24;;;;;;;;;;;15.70;78.20;;;;;;5093034;28;19966;-36
2023/03/13 11:04:52;;;;;;;;;;;15.80;78.10;;;;;;5092924;28;19919;-34
2023/03/13 11:07:21;;;;;;;;;;;15.80;77.80;;;;;;5092810;28;19912;-32
2023/03/13 11:09:58;;;;;;;;;;;15.80;77.10;;;;;;5092851;28;19912;-41
2023/03/13 11:12:24;;;;;;;;;;;15.90;76.90;;;;;;5092715;28;19963;-39
2023/03/13 11:14:55;;;;;;;;;;;15.90;76.80;;;;;;5092620;28;19955;-35
2023/03/13 11:17:26;;;;;;;;;;;16.00;75.70;;;;;;5092660;28;19912;-33
2023/03/13 11:19:59;;;;;;;;;;;16.00;75.30;;;;;;5092737;28;19965;-33
2023/03/13 11:22:34;;;;;;;;;;;16.00;75.20;;;;;;5092525;28;19913;-30
2023/03/13 11:25:02;;;;;;;;;;;16.10;75.30;;;;;;5092621;28;20415;-33
2023/03/13 11:27:35;;;;;;;;;;;16.10;75.20;;;;;;5092487;28;19916;-35
2023/03/13 11:30:12;;;;;;;;;;;16.30;75.20;;;;;;5092095;28;19920;-30
2023/03/13 11:32:41;;;;;;;;;;;16.30;72.70;;;;;;5092409;28;20305;-31
2023/03/13 11:35:15;;;;;;;;;;;16.40;73.60;;;;;;5090828;28;19927;-32
2023/03/13 11:37:41;;;;;;;;;;;16.50;73.40;;;;;;5092308;28;20000;-33
2023/03/13 11:40:13;;;;;;;;;;;16.50;72.40;;;;;;5092555;28;20387;-34
2023/03/13 11:42:58;;;;;;;;;;;16.50;72.60;;;;;;5092255;28;20339;-36
2023/03/13 11:45:47;;;;;;;;;;;16.50;73.00;;;;;;5091628;28;20345;-36
2023/03/13 11:48:31;;;;;;;;;;;16.50;71.90;;;;;;5091974;28;19912;-34
2023/03/13 11:51:03;;;;;;;;;;;16.50;72.30;;;;;;5092192;28;19912;-34
2023/03/13 11:53:47;;;;;;;;;;;16.60;72.60;;;;;;5092131;28;19912;-36
2023/03/13 11:56:20;;;;;;;;;;;16.60;72.20;;;;;;5091839;28;19916;-34
2023/03/13 11:58:56;;;;;;;;;;;16.70;71.80;;;;;;5092247;28;19919;-34
2023/03/13 12:01:24;;;;;;;;;;;16.80;71.40;;;;;;5090445;28;19918;-38
2023/03/13 12:03:49;;;;;;;;;;;16.80;72.30;;;;;;5091812;28;19999;-35
2023/03/13 12:06:26;;;;;;;;;;;16.90;69.90;;;;;;5091801;28;19952;-33
2023/03/13 12:08:55;;;;;;;;;;;17.00;70.50;;;;;;5091594;28;19919;-33
2023/03/13 12:11:24;;;;;;;;;;;17.00;70.00;;;;;;5091737;28;19912;-33
2023/03/13 12:13:49;;;;;;;;;;;17.00;70.00;;;;;;5091691;28;19936;-32
2023/03/13 12:16:18;;;;;;;;;;;17.00;70.50;;;;;;5091645;28;19920;-34
2023/03/13 12:18:44;;;;;;;;;;;17.00;69.60;;;;;;5090621;28;20284;-32
2023/03/13 12:21:13;;;;;;;;;;;17.00;70.10;;;;;;5091804;28;20264;-32
2023/03/13 12:23:38;;;;;;;;;;;17.00;69.60;;;;;;5092065;28;20368;-30
2023/03/13 12:26:15;;;;;;;;;;;17.00;68.70;;;;;;5090449;28;19912;-32
2023/03/13 12:28:42;;;;;;;;;;;17.00;67.40;;;;;;5091545;28;19916;-32
2023/03/13 12:31:08;;;;;;;;;;;17.00;67.60;;;;;;5090226;28;20424;-34
2023/03/13 12:33:36;;;;;;;;;;;16.90;68.00;;;;;;5091654;28;20015;-38
2023/03/13 12:36:05;;;;;;;;;;;16.90;67.50;;;;;;5091766;28;19919;-32
2023/03/13 12:38:40;;;;;;;;;;;16.80;67.40;;;;;;5091586;28;20007;-37
2023/03/13 12:41:20;;;;;;;;;;;16.70;68.00;;;;;;5091765;28;19999;-36
2023/03/13 12:43:47;;;;;;;;;;;16.70;67.90;;;;;;5091652;28;19916;-32
2023/03/13 12:46:31;;;;;;;;;;;16.70;67.80;;;;;;5091586;28;20025;-34
2023/03/13 12:49:17;;;;;;;;;;;16.60;68.80;;;;;;5090093;28;19919;-33
2023/03/13 12:52:01;;;;;;;;;;;16.60;68.50;;;;;;5091407;28;19919;-34
2023/03/13 12:54:39;;;;;;;;;;;16.60;68.60;;;;;;5091402;28;19959;-32
2023/03/13 12:57:11;;;;;;;;;;;16.70;68.30;;;;;;5091708;28;20359;-32
2023/03/13 12:59:38;;;;;;;;;;;16.80;67.50;;;;;;5091389;28;20324;-34
2023/03/13 13:02:18;;;;;;;;;;;16.90;67.60;;;;;;5091330;28;19912;-36
2023/03/13 13:04:46;;;;;;;;;;;17.00;67.20;;;;;;5091231;28;19912;-30
2023/03/13 13:07:20;;;;;;;;;;;17.10;66.50;;;;;;5091232;28;19912;-32
2023/03/13 13:10:00;;;;;;;;;;;17.10;64.90;;;;;;5091170;28;20247;-37
2023/03/13 13:12:26;;;;;;;;;;;17.20;66.30;;;;;;5091152;28;20340;-33
2023/03/13 13:14:51;;;;;;;;;;;17.20;66.10;;;;;;5090970;28;20064;-36
2023/03/13 13:17:20;;;;;;;;;;;17.20;64.20;;;;;;5090959;28;19912;-32
2023/03/13 13:19:46;;;;;;;;;;;17.30;64.20;;;;;;5091893;28;19916;-35
2023/03/13 13:22:32;;;;;;;;;;;17.30;64.80;;;;;;5094862;28;19917;-35
2023/03/13 13:24:59;;;;;;;;;;;17.30;64.30;;;;;;5095066;28;19912;-32
2023/03/13 13:27:44;;;;;;;;;;;17.30;65.20;;;;;;5094679;28;20022;-35
2023/03/13 13:30:16;;;;;;;;;;;17.30;65.90;;;;;;5094181;28;19924;-35
2023/03/13 13:32:43;;;;;;;;;;;17.40;66.10;;;;;;5094767;28;19912;-30
2023/03/13 13:35:11;;;;;;;;;;;17.50;65.20;;;;;;5094573;28;19916;-36
2023/03/13 13:37:38;;;;;;;;;;;17.60;65.20;;;;;;5094542;28;19974;-31
2023/03/13 13:40:16;;;;;;;;;;;17.70;65.30;;;;;;5094531;28;19950;-37
2023/03/13 13:42:48;;;;;;;;;;;17.70;64.20;;;;;;5094587;28;20356;-34
2023/03/13 13:45:14;;;;;;;;;;;17.90;64.60;;;;;;5094717;28;20337;-34
2023/03/13 13:47:41;;;;;;;;;;;18.00;63.20;;;;;;5094417;28;19911;-33
2023/03/13 13:50:16;;;;;;;;;;;18.10;60.50;;;;;;5094423;28;19946;-32
2023/03/13 13:52:42;;;;;;;;;;;18.00;61.40;;;;;;5094431;28;19912;-34
2023/03/13 13:55:26;;;;;;;;;;;18.00;60.20;;;;;;5094219;28;20386;-30
2023/03/13 13:58:18;;;;;;;;;;;18.00;60.10;;;;;;5094187;28;19931;-34
2023/03/13 14:00:45;;;;;;;;;;;18.00;59.70;;;;;;5091939;28;20396;-33
2023/03/13 14:03:40;;;;;;;;;;;18.10;59.50;;;;;;5094317;28;20010;-36
2023/03/13 14:06:30;;;;;;;;;;;18.10;59.80;;;;;;5093070;28;19912;-30
2023/03/13 14:09:00;;;;;;;;;;;18.00;58.40;;;;;;5093913;28;20011;-34
2023/03/13 14:11:29;;;;;;;;;;;18.00;58.40;;;;;;5094015;28;19999;-36
2023/03/13 14:14:08;;;;;;;;;;;18.00;58.60;;;;;;5093920;28;19916;-37
2023/03/13 14:16:33;;;;;;;;;;;18.00;59.20;;;;;;5092615;28;20399;-36
2023/03/13 14:18:59;;;;;;;;;;;18.00;58.70;;;;;;5093896;28;19916;-32
2023/03/13 14:21:26;;;;;;;;;;;18.00;58.80;;;;;;5093920;28;20404;-37